createdAt,value
2023-02-19T05:02:32.725Z,3.58
2023-02-19T05:04:59.431Z,3.60
2023-02-19T05:07:25.966Z,3.75
2023-02-19T05:09:52.467Z,3.33
2023-02-19T05:12:18.995Z,3.70
2023-02-19T05:14:45.402Z,3.72
2023-02-19T05:17:12.020Z,3.60
2023-02-19T05:19:38.451Z,3.80
2023-02-19T05:22:04.907Z,3.50
2023-02-19T05:24:31.546Z,3.78
2023-02-19T05:26:58.048Z,3.42
2023-02-19T05:29:24.576Z,3.80
2023-02-19T05:31:51.116Z,3.50
2023-02-19T05:34:17.711Z,3.90
2023-02-19T05:36:44.166Z,3.72
2023-02-19T05:39:11.945Z,4.20
2023-02-19T05:41:39.070Z,3.67
2023-02-19T05:44:05.512Z,3.72
2023-02-19T05:46:32.289Z,4.00
2023-02-19T05:48:58.862Z,3.90
2023-02-19T05:51:26.933Z,3.75
2023-02-19T05:53:53.634Z,3.60
2023-02-19T05:56:26.165Z,3.55
2023-02-19T05:58:53.810Z,3.70
2023-02-19T06:01:22.726Z,3.30
2023-02-19T06:03:49.240Z,3.60
2023-02-19T06:06:17.974Z,4.03
2023-02-19T06:08:44.520Z,3.70
2023-02-19T06:11:11.641Z,3.92
2023-02-19T06:13:38.220Z,3.90
2023-02-19T06:16:05.785Z,4.20
2023-02-19T06:18:32.241Z,3.85
2023-02-19T06:21:03.347Z,3.83
2023-02-19T06:23:30.191Z,3.83
2023-02-19T06:26:18.102Z,4.15
2023-02-19T06:28:45.274Z,4.15
2023-02-19T06:31:12.583Z,4.50
2023-02-19T06:33:40.528Z,4.20
2023-02-19T06:36:11.465Z,3.83
2023-02-19T06:38:37.900Z,4.13
2023-02-19T06:41:05.533Z,4.38
2023-02-19T06:43:33.213Z,4.35
2023-02-19T06:46:00.847Z,10.77
2023-02-19T06:48:29.151Z,5.82
2023-02-19T06:50:55.833Z,4.70
2023-02-19T06:53:23.151Z,4.40
2023-02-19T06:56:01.391Z,4.32
2023-02-19T06:58:28.162Z,4.50
2023-02-19T07:00:54.942Z,4.18
2023-02-19T07:03:21.782Z,4.40
2023-02-19T07:05:48.473Z,5.53
2023-02-19T07:08:17.158Z,5.18
2023-02-19T07:10:44.919Z,4.77
2023-02-19T07:13:11.534Z,4.97
2023-02-19T07:15:38.188Z,3.97
2023-02-19T07:18:07.034Z,4.40
2023-02-19T07:20:33.555Z,4.40
2023-02-19T07:23:00.098Z,4.65
2023-02-19T07:25:26.621Z,4.30
2023-02-19T07:27:53.057Z,4.40
2023-02-19T07:30:19.771Z,4.07
2023-02-19T07:32:46.312Z,4.65
2023-02-19T07:35:12.835Z,4.55
2023-02-19T07:37:41.014Z,4.25
2023-02-19T07:40:07.832Z,4.25
2023-02-19T07:42:34.285Z,4.43
2023-02-19T07:45:00.849Z,4.38
2023-02-19T07:47:27.376Z,4.00
2023-02-19T07:49:54.572Z,4.20
2023-02-19T07:52:21.743Z,4.30
2023-02-19T07:54:48.352Z,4.00
2023-02-19T07:57:14.846Z,4.07
2023-02-19T07:59:41.368Z,4.38
2023-02-19T08:02:37.405Z,4.30
2023-02-19T08:05:05.239Z,4.50
2023-02-19T08:07:33.355Z,3.97
2023-02-19T08:10:18.756Z,4.03
2023-02-19T08:13:03.753Z,4.30
2023-02-19T08:15:30.235Z,4.38
2023-02-19T08:17:56.779Z,5.38
2023-02-19T08:20:23.226Z,4.47
2023-02-19T08:22:49.748Z,4.88
2023-02-19T08:25:16.337Z,5.68
2023-02-19T08:27:42.882Z,4.95
2023-02-19T08:30:09.791Z,4.13
2023-02-19T08:32:36.306Z,3.78
2023-02-19T08:35:05.540Z,3.33
2023-02-19T08:37:31.988Z,3.00
2023-02-19T08:39:58.476Z,3.05
2023-02-19T08:42:24.982Z,3.03
2023-02-19T08:44:51.532Z,3.13
2023-02-19T08:47:18.068Z,3.33
2023-02-19T08:49:44.575Z,3.00
2023-02-19T08:52:11.278Z,3.28
2023-02-19T08:54:37.734Z,3.47
2023-02-19T08:57:05.224Z,3.75
2023-02-19T08:59:32.350Z,3.00
2023-02-19T09:01:59.304Z,3.10
2023-02-19T09:04:26.017Z,3.20
2023-02-19T09:06:52.740Z,4.50
2023-02-19T09:09:19.216Z,3.95
2023-02-19T09:11:47.416Z,4.28
2023-02-19T09:14:15.521Z,3.28
2023-02-19T09:16:42.042Z,3.55
2023-02-19T09:19:08.587Z,5.00
2023-02-19T09:21:35.115Z,3.28
2023-02-19T09:24:01.714Z,3.03
2023-02-19T09:26:28.231Z,3.50
2023-02-19T09:28:54.690Z,3.20
2023-02-19T09:31:21.414Z,3.08
2023-02-19T09:33:48.798Z,2.63
2023-02-19T09:36:16.306Z,3.10
2023-02-19T09:38:43.017Z,2.90
2023-02-19T09:41:25.731Z,3.60
2023-02-19T09:43:52.395Z,3.67
2023-02-19T09:46:44.254Z,3.35
2023-02-19T09:49:15.017Z,3.65
2023-02-19T09:51:45.136Z,3.40
2023-02-19T09:54:20.905Z,2.70
2023-02-19T09:56:47.595Z,3.60
2023-02-19T09:59:24.059Z,3.65
2023-02-19T10:01:57.311Z,3.00
2023-02-19T10:04:23.938Z,2.90
2023-02-19T10:06:51.426Z,3.35
2023-02-19T10:09:23.591Z,2.72
2023-02-19T10:11:50.389Z,3.47
2023-02-19T10:14:21.242Z,3.40
2023-02-19T10:16:48.220Z,3.10
2023-02-19T10:19:15.222Z,3.53
2023-02-19T10:21:42.057Z,4.03
2023-02-19T10:24:14.928Z,3.90
2023-02-19T10:26:41.384Z,3.30
2023-02-19T10:29:09.654Z,3.03
2023-02-19T10:31:36.337Z,3.40
2023-02-19T10:34:03.307Z,3.15
2023-02-19T10:36:33.714Z,2.97
2023-02-19T10:39:01.606Z,2.88
2023-02-19T10:41:28.869Z,2.78
2023-02-19T10:43:57.910Z,3.17
2023-02-19T10:46:27.198Z,3.55
2023-02-19T10:48:57.190Z,3.35
2023-02-19T10:51:38.908Z,3.00
2023-02-19T10:54:20.815Z,3.13
2023-02-19T10:56:47.512Z,3.00
2023-02-19T10:59:25.721Z,3.15
2023-02-19T11:02:03.576Z,4.47
2023-02-19T11:04:35.025Z,2.95
2023-02-19T11:07:15.475Z,3.70
2023-02-19T11:09:45.444Z,3.03
2023-02-19T11:12:13.426Z,3.00
2023-02-19T11:14:44.213Z,3.00
2023-02-19T11:17:25.565Z,2.90
2023-02-19T11:19:54.332Z,3.85
2023-02-19T11:22:39.530Z,2.53
2023-02-19T11:25:15.151Z,2.85
2023-02-19T11:28:07.321Z,4.57
2023-02-19T11:30:36.572Z,3.72
2023-02-19T11:33:24.689Z,3.45
2023-02-19T11:35:54.147Z,3.10
2023-02-19T11:41:26.024Z,3.38
2023-02-19T11:44:04.824Z,3.38
2023-02-19T11:47:03.356Z,3.58
2023-02-19T11:50:00.591Z,3.33
2023-02-19T11:52:33.054Z,3.78
2023-02-19T11:55:23.375Z,3.88
2023-02-19T11:58:23.262Z,4.85
2023-02-19T12:00:56.046Z,4.30
2023-02-19T12:03:45.505Z,4.10
2023-02-19T12:08:57.800Z,3.70
2023-02-19T12:14:39.429Z,3.28
2023-02-19T12:17:38.355Z,3.28
2023-02-19T12:20:32.726Z,3.10
2023-02-19T12:23:29.676Z,2.90
2023-02-19T12:26:18.990Z,2.95
2023-02-19T12:31:42.297Z,3.45
2023-02-19T12:34:39.791Z,2.47
2023-02-19T12:37:21.198Z,2.60
2023-02-19T12:39:56.411Z,1.98
2023-02-19T12:42:46.076Z,1.80
2023-02-19T12:45:20.299Z,2.08
2023-02-19T12:47:57.808Z,2.10
2023-02-19T12:50:26.495Z,1.75
2023-02-19T12:53:01.528Z,1.95
2023-02-19T12:55:35.792Z,1.92
2023-02-19T12:58:04.506Z,2.10
2023-02-19T13:00:43.293Z,2.28
2023-02-19T13:03:30.526Z,2.08
2023-02-19T13:06:24.657Z,2.05
2023-02-19T13:09:08.106Z,2.35
2023-02-19T13:11:47.330Z,2.20
2023-02-19T13:14:16.429Z,1.85
2023-02-19T13:16:47.318Z,1.90
2023-02-19T13:19:15.133Z,2.40
2023-02-19T13:22:01.050Z,2.30
2023-02-19T13:24:34.182Z,2.15
2023-02-19T13:27:08.792Z,2.53
2023-02-19T13:30:00.037Z,2.40
2023-02-19T13:33:01.818Z,2.28
2023-02-19T13:35:56.120Z,2.25
2023-02-19T13:38:23.297Z,2.17
2023-02-19T13:40:57.835Z,2.33
2023-02-19T13:43:31.013Z,2.38
2023-02-19T13:46:03.283Z,2.40
2023-02-19T13:48:32.860Z,2.40
2023-02-19T13:51:23.553Z,2.22
2023-02-19T13:54:01.068Z,2.30
2023-02-19T13:56:31.387Z,2.15
2023-02-19T13:59:25.950Z,2.10
2023-02-19T14:01:58.532Z,2.20
2023-02-19T14:04:41.367Z,2.30
2023-02-19T14:07:07.769Z,2.30
2023-02-19T14:09:34.185Z,2.00
2023-02-19T14:12:09.563Z,2.10
2023-02-19T14:14:45.993Z,3.03
2023-02-19T14:17:25.518Z,2.33
2023-02-19T14:20:00.275Z,2.22
2023-02-19T14:22:45.359Z,2.58
2023-02-19T14:25:23.317Z,2.40
2023-02-19T14:27:51.678Z,2.40
2023-02-19T14:30:18.856Z,2.40
2023-02-19T14:32:51.027Z,2.13
2023-02-19T14:35:19.771Z,2.33
2023-02-19T14:37:47.061Z,2.53
2023-02-19T14:40:38.678Z,2.67
2023-02-19T14:43:06.518Z,2.20
2023-02-19T14:45:41.406Z,2.22
2023-02-19T14:48:17.601Z,2.40
2023-02-19T14:50:48.610Z,2.20
2023-02-19T14:53:15.977Z,2.00
2023-02-19T14:55:42.914Z,2.15
2023-02-19T14:58:16.980Z,3.00
2023-02-19T15:00:43.783Z,3.00
2023-02-19T15:03:36.240Z,2.90
2023-02-19T15:06:08.145Z,2.55
2023-02-19T15:08:38.079Z,2.47
2023-02-19T15:11:10.224Z,2.28
2023-02-19T15:13:37.238Z,2.28
2023-02-19T15:16:04.113Z,2.13
2023-02-19T15:18:35.603Z,2.00
2023-02-19T15:21:04.595Z,2.30
2023-02-19T15:23:33.278Z,2.20
2023-02-19T15:26:00.355Z,2.30
2023-02-19T15:28:26.895Z,2.08
2023-02-19T15:30:59.376Z,2.40
2023-02-19T15:33:27.441Z,2.17
2023-02-19T15:35:56.072Z,2.00
2023-02-19T15:38:22.686Z,2.20
2023-02-19T15:40:49.654Z,2.33
2023-02-19T15:43:27.883Z,3.35
2023-02-19T15:45:59.401Z,2.88
2023-02-19T15:48:40.896Z,3.45
2023-02-19T15:51:16.927Z,5.00
2023-02-19T15:53:50.339Z,2.67
2023-02-19T15:56:32.453Z,2.78
2023-02-19T15:59:00.423Z,3.00
2023-02-19T16:01:29.035Z,3.15
2023-02-19T16:03:55.950Z,3.30
2023-02-19T16:06:24.130Z,2.33
2023-02-19T16:09:06.560Z,2.65
2023-02-19T16:12:06.604Z,2.97
2023-02-19T16:14:35.097Z,2.65
2023-02-19T16:17:10.811Z,3.40
2023-02-19T16:19:43.505Z,4.85
2023-02-19T16:22:11.536Z,4.03
2023-02-19T16:24:45.132Z,3.10
2023-02-19T16:27:13.865Z,3.00
2023-02-19T16:29:40.456Z,3.20
2023-02-19T16:32:14.149Z,2.78
2023-02-19T16:34:42.577Z,3.50
2023-02-19T16:37:30.942Z,2.72
2023-02-19T16:40:17.353Z,2.70
2023-02-19T16:42:49.963Z,3.10
2023-02-19T16:45:17.412Z,3.08
2023-02-19T16:47:48.511Z,4.60
2023-02-19T16:50:20.660Z,4.47
2023-02-19T16:52:58.228Z,3.72
2023-02-19T16:55:25.602Z,3.90
2023-02-19T16:57:52.216Z,3.70
2023-02-19T17:00:24.098Z,3.90
2023-02-19T17:02:52.877Z,3.50
2023-02-19T17:05:20.424Z,4.57
2023-02-19T17:07:47.235Z,4.40
2023-02-19T17:10:17.146Z,4.75
2023-02-19T17:12:43.681Z,4.32
2023-02-19T17:15:11.035Z,4.50
2023-02-19T17:17:37.814Z,4.38
2023-02-19T17:20:20.427Z,4.30
2023-02-19T17:22:46.949Z,4.35
2023-02-19T17:25:13.526Z,4.22
2023-02-19T17:27:41.236Z,4.63
2023-02-19T17:30:19.216Z,4.30
2023-02-19T17:32:46.056Z,3.85
2023-02-19T17:35:13.296Z,3.80
2023-02-19T17:37:39.865Z,3.80
2023-02-19T17:40:31.902Z,3.83
2023-02-19T17:42:59.535Z,3.30
2023-02-19T17:45:26.148Z,2.75
2023-02-19T17:47:53.076Z,2.95
2023-02-19T17:50:26.536Z,3.10
2023-02-19T17:52:53.163Z,6.40
2023-02-19T17:55:19.853Z,2.65
2023-02-19T17:57:47.642Z,4.82
2023-02-19T18:00:16.255Z,3.47
2023-02-19T18:02:42.897Z,5.23
2023-02-19T18:05:09.374Z,8.00
2023-02-19T18:07:36.095Z,9.88
2023-02-19T18:10:03.345Z,9.25
2023-02-19T18:12:29.963Z,9.48
2023-02-19T18:14:57.243Z,4.70
2023-02-19T18:17:24.667Z,3.10
2023-02-19T18:19:51.785Z,2.70
2023-02-19T18:22:18.715Z,2.80
2023-02-19T18:24:49.480Z,3.15
2023-02-19T18:27:16.593Z,3.55
2023-02-19T18:29:43.141Z,3.10
2023-02-19T18:32:12.643Z,3.60
2023-02-19T18:37:06.004Z,3.90
2023-02-19T18:39:33.300Z,4.43
2023-02-19T18:42:00.799Z,4.35
2023-02-19T18:44:27.538Z,3.55
2023-02-19T18:46:54.300Z,3.40
2023-02-19T18:49:20.915Z,4.03
2023-02-19T18:51:47.630Z,3.53
2023-02-19T18:54:14.168Z,4.93
2023-02-19T18:56:44.614Z,5.00
2023-02-19T18:59:11.791Z,4.72
2023-02-19T19:01:38.440Z,4.80
2023-02-19T19:04:05.583Z,4.72
2023-02-19T19:06:32.797Z,4.70
2023-02-19T19:08:59.359Z,4.40
2023-02-19T19:11:26.073Z,3.42
2023-02-19T19:13:53.026Z,4.15
2023-02-19T19:16:23.466Z,5.10
2023-02-19T19:18:50.238Z,7.47
2023-02-19T19:21:17.404Z,10.25
2023-02-19T19:23:44.141Z,14.20
2023-02-19T19:26:12.355Z,12.13
2023-02-19T19:28:44.228Z,11.13
2023-02-19T19:31:12.612Z,8.48
2023-02-19T19:33:40.289Z,10.50
2023-02-19T19:36:09.090Z,8.57
2023-02-19T19:38:35.749Z,9.20
2023-02-19T19:41:02.470Z,8.95
2023-02-19T19:43:30.245Z,8.13
2023-02-19T19:45:57.596Z,7.10
2023-02-19T19:48:27.417Z,7.70
2023-02-19T19:50:54.407Z,8.68
2023-02-19T19:53:20.950Z,7.10
2023-02-19T19:55:47.557Z,8.27
2023-02-19T19:58:14.141Z,5.95
2023-02-19T20:00:40.725Z,4.65
2023-02-19T20:03:07.398Z,4.63
2023-02-19T20:05:34.019Z,4.88
2023-02-19T20:08:00.714Z,4.45
2023-02-19T20:10:27.344Z,3.95
2023-02-19T20:12:53.946Z,3.80
2023-02-19T20:15:22.107Z,4.63
2023-02-19T20:17:49.809Z,4.55
2023-02-19T20:20:20.047Z,4.57
2023-02-19T20:22:46.631Z,5.72
2023-02-19T20:25:13.298Z,4.65
2023-02-19T20:27:39.884Z,4.22
2023-02-19T20:30:08.761Z,4.45
2023-02-19T20:32:36.538Z,5.13
2023-02-19T20:35:03.465Z,5.25
2023-02-19T20:37:30.036Z,5.43
2023-02-19T20:39:56.596Z,5.25
2023-02-19T20:42:23.277Z,4.45
2023-02-19T20:44:49.821Z,4.38
2023-02-19T20:47:16.643Z,4.43
2023-02-19T20:49:46.767Z,3.95
2023-02-19T20:52:15.718Z,3.60
2023-02-19T20:54:43.992Z,3.08
2023-02-19T20:57:11.246Z,4.03
2023-02-19T20:59:38.817Z,5.00
2023-02-19T21:02:28.846Z,5.60
2023-02-19T21:04:58.822Z,6.38
2023-02-19T21:07:26.016Z,6.90
2023-02-19T21:09:53.104Z,7.50
2023-02-19T21:12:22.148Z,7.35
2023-02-19T21:14:49.432Z,7.55
2023-02-19T21:17:16.194Z,6.90
2023-02-19T21:19:42.801Z,6.28
2023-02-19T21:22:09.424Z,5.40
2023-02-19T21:24:36.054Z,4.63
2023-02-19T21:27:02.596Z,5.80
2023-02-19T21:29:29.223Z,5.03
2023-02-19T21:31:57.147Z,4.85
2023-02-19T21:34:26.628Z,5.63
2023-02-19T21:36:53.931Z,5.03
2023-02-19T21:39:22.241Z,5.05
2023-02-19T21:41:48.850Z,4.60
2023-02-19T21:44:20.170Z,4.28
2023-02-19T21:46:51.047Z,3.75
2023-02-19T21:49:17.893Z,3.40
2023-02-19T21:51:47.777Z,3.10
2023-02-19T21:54:16.844Z,2.83
2023-02-19T21:56:43.489Z,2.95
2023-02-19T21:59:10.252Z,2.75
